createdAt,value
2023-07-05T00:00:21.707Z,48.75
2023-07-05T00:03:07.074Z,48.79
2023-07-05T00:05:52.649Z,48.87
2023-07-05T00:08:38.310Z,48.87
2023-07-05T00:11:23.623Z,48.85
2023-07-05T00:14:09.086Z,48.89
2023-07-05T00:16:54.359Z,48.74
2023-07-05T00:19:40.339Z,48.89
2023-07-05T00:22:27.658Z,48.77
2023-07-05T00:25:12.996Z,48.94
2023-07-05T00:27:58.281Z,48.76
2023-07-05T00:30:44.823Z,48.83
2023-07-05T00:33:32.464Z,48.68
2023-07-05T00:36:18.093Z,48.79
2023-07-05T00:39:03.779Z,48.73
2023-07-05T00:41:49.328Z,48.95
2023-07-05T00:44:34.751Z,48.70
2023-07-05T00:47:33.264Z,48.67
2023-07-05T00:50:24.983Z,48.76
2023-07-05T00:53:12.207Z,48.91
2023-07-05T00:56:05.774Z,48.66
2023-07-05T00:58:52.870Z,48.88
2023-07-05T01:01:46.814Z,48.67
2023-07-05T01:04:45.317Z,48.86
2023-07-05T01:07:30.934Z,48.67
2023-07-05T01:10:22.041Z,48.73
2023-07-05T01:13:15.041Z,48.80
2023-07-05T01:16:43.034Z,48.68
2023-07-05T01:19:52.991Z,48.72
2023-07-05T01:22:53.911Z,48.70
2023-07-05T01:25:42.496Z,48.90
2023-07-05T01:28:27.817Z,48.80
2023-07-05T01:31:16.020Z,48.87
2023-07-05T01:34:22.707Z,48.65
2023-07-05T01:37:09.888Z,48.67
2023-07-05T01:39:55.684Z,48.73
2023-07-05T01:45:41.391Z,48.68
2023-07-05T01:49:05.819Z,48.66
2023-07-05T01:52:09.504Z,48.70
2023-07-05T01:55:03.443Z,48.73
2023-07-05T01:58:11.049Z,48.78
2023-07-05T02:01:00.551Z,48.72
2023-07-05T02:03:50.613Z,48.80
2023-07-05T02:06:39.043Z,48.78
2023-07-05T02:09:24.553Z,48.84
2023-07-05T02:12:12.937Z,48.73
2023-07-05T02:14:58.984Z,48.88
2023-07-05T02:17:46.270Z,48.82
2023-07-05T02:20:32.743Z,48.67
2023-07-05T02:23:18.304Z,48.79
2023-07-05T02:26:05.921Z,48.81
2023-07-05T02:28:52.382Z,48.86
2023-07-05T02:31:37.683Z,48.72
2023-07-05T02:34:22.885Z,49.00
2023-07-05T02:37:12.098Z,48.76
2023-07-05T02:39:57.588Z,48.64
2023-07-05T02:42:42.930Z,48.88
2023-07-05T02:45:29.224Z,48.71
2023-07-05T02:48:14.632Z,48.95
2023-07-05T02:51:00.293Z,48.57
2023-07-05T02:53:45.403Z,48.96
2023-07-05T02:56:30.764Z,49.06
2023-07-05T02:59:16.152Z,49.05
2023-07-05T03:02:01.843Z,49.21
2023-07-05T03:04:48.472Z,49.02
2023-07-05T03:07:33.590Z,49.13
2023-07-05T03:10:18.850Z,49.12
2023-07-05T03:13:04.331Z,49.15
2023-07-05T03:15:49.675Z,49.12
2023-07-05T03:18:35.262Z,49.08
2023-07-05T03:21:20.980Z,49.21
2023-07-05T03:24:06.436Z,49.06
2023-07-05T03:26:55.001Z,49.03
2023-07-05T03:29:40.166Z,49.21
2023-07-05T03:32:27.511Z,49.20
2023-07-05T03:35:15.274Z,49.09
2023-07-05T03:38:01.545Z,49.44
2023-07-05T03:40:46.961Z,49.51
2023-07-05T03:43:36.824Z,49.31
2023-07-05T03:46:22.351Z,49.29
2023-07-05T03:49:08.050Z,49.29
2023-07-05T03:51:53.495Z,49.79
2023-07-05T03:54:38.792Z,49.50
2023-07-05T03:57:24.546Z,49.11
2023-07-05T04:00:10.500Z,48.05
2023-07-05T04:02:59.131Z,47.59
2023-07-05T04:05:45.971Z,47.23
2023-07-05T04:08:32.069Z,47.29
2023-07-05T04:11:18.917Z,47.06
2023-07-05T04:14:04.859Z,47.31
2023-07-05T04:16:50.888Z,47.01
2023-07-05T04:19:36.744Z,46.61
2023-07-05T04:22:22.580Z,46.85
2023-07-05T04:25:09.136Z,46.74
2023-07-05T04:27:54.798Z,46.80
2023-07-05T04:30:40.373Z,46.66
2023-07-05T04:33:26.583Z,46.70
2023-07-05T04:36:25.745Z,46.63
2023-07-05T04:39:13.492Z,47.31
2023-07-05T04:42:02.583Z,47.31
2023-07-05T04:44:48.607Z,47.71
2023-07-05T04:47:34.201Z,47.42
2023-07-05T04:50:20.115Z,47.27
2023-07-05T04:53:05.444Z,47.39
2023-07-05T04:55:53.432Z,47.68
2023-07-05T04:58:38.620Z,47.79
2023-07-05T05:01:24.216Z,47.53
2023-07-05T05:04:09.349Z,47.56
2023-07-05T05:06:54.680Z,47.49
2023-07-05T05:09:41.856Z,47.85
2023-07-05T05:12:27.427Z,47.68
2023-07-05T05:15:13.012Z,47.65
2023-07-05T05:17:58.408Z,47.80
2023-07-05T05:20:44.326Z,47.90
2023-07-05T05:23:30.909Z,47.87
2023-07-05T05:26:16.563Z,48.13
2023-07-05T05:29:01.792Z,48.28
2023-07-05T05:31:49.434Z,48.51
2023-07-05T05:34:34.898Z,48.42
2023-07-05T05:37:20.220Z,48.83
2023-07-05T05:40:07.007Z,48.78
2023-07-05T05:42:52.285Z,48.84
2023-07-05T05:45:37.571Z,48.98
2023-07-05T05:48:22.828Z,49.17
2023-07-05T05:51:08.134Z,49.40
2023-07-05T05:53:53.278Z,49.45
2023-07-05T05:56:38.577Z,49.66
2023-07-05T05:59:24.140Z,49.89
2023-07-05T06:02:10.389Z,49.88
2023-07-05T06:04:55.687Z,50.08
2023-07-05T06:07:40.969Z,50.23
2023-07-05T06:10:26.331Z,50.56
2023-07-05T06:13:11.482Z,50.57
2023-07-05T06:16:13.825Z,50.68
2023-07-05T06:19:00.488Z,50.77
2023-07-05T06:21:45.608Z,51.15
2023-07-05T06:24:35.053Z,51.13
2023-07-05T06:27:20.664Z,51.29
2023-07-05T06:30:07.165Z,51.45
2023-07-05T06:32:52.864Z,51.53
2023-07-05T06:35:38.291Z,51.98
2023-07-05T06:38:23.623Z,52.02
2023-07-05T06:41:09.124Z,52.18
2023-07-05T06:43:54.359Z,52.28
2023-07-05T06:46:39.691Z,52.26
2023-07-05T06:49:25.565Z,52.28
2023-07-05T06:52:10.894Z,52.52
2023-07-05T06:54:56.324Z,52.19
2023-07-05T06:57:41.507Z,51.99
2023-07-05T07:00:27.032Z,52.06
2023-07-05T07:03:13.040Z,52.19
2023-07-05T07:05:59.529Z,52.31
2023-07-05T07:08:45.085Z,52.24
2023-07-05T07:11:30.532Z,52.27
2023-07-05T07:14:16.109Z,52.33
2023-07-05T07:17:01.543Z,52.16
2023-07-05T07:19:47.087Z,52.41
2023-07-05T07:22:32.523Z,52.15
2023-07-05T07:25:17.513Z,51.96
2023-07-05T07:28:02.853Z,52.05
2023-07-05T07:30:48.249Z,52.04
2023-07-05T07:33:33.631Z,51.90
2023-07-05T07:36:22.401Z,52.06
2023-07-05T07:39:07.897Z,51.96
2023-07-05T07:41:53.365Z,52.04
2023-07-05T07:44:38.790Z,51.79
2023-07-05T07:47:24.259Z,51.98
2023-07-05T07:50:14.115Z,51.93
2023-07-05T07:52:59.663Z,51.85
2023-07-05T07:55:44.882Z,51.90
2023-07-05T07:58:32.383Z,52.00
2023-07-05T08:01:29.979Z,51.80
2023-07-05T08:04:16.609Z,52.03
2023-07-05T08:07:02.636Z,51.76
2023-07-05T08:09:51.232Z,51.87
2023-07-05T08:12:36.770Z,51.91
2023-07-05T08:15:22.076Z,51.95
2023-07-05T08:18:07.446Z,51.91
2023-07-05T08:20:53.361Z,51.83
2023-07-05T08:23:39.010Z,51.93
2023-07-05T08:26:24.361Z,52.14
2023-07-05T08:29:10.106Z,51.87
2023-07-05T08:31:55.521Z,51.83
2023-07-05T08:34:40.758Z,51.58
2023-07-05T08:37:25.992Z,51.82
2023-07-05T08:40:12.642Z,51.82
2023-07-05T08:43:05.655Z,52.02
2023-07-05T08:46:00.796Z,51.77
2023-07-05T08:48:48.494Z,51.80
2023-07-05T08:51:35.446Z,51.82
2023-07-05T08:54:21.119Z,51.87
2023-07-05T08:57:14.200Z,52.00
2023-07-05T09:00:09.880Z,51.95
2023-07-05T09:02:55.817Z,51.91
2023-07-05T09:05:51.518Z,52.00
2023-07-05T09:08:52.376Z,51.87
2023-07-05T09:11:59.875Z,51.85
2023-07-05T09:14:57.760Z,51.90
2023-07-05T09:17:46.426Z,51.96
2023-07-05T09:20:54.449Z,52.16
2023-07-05T09:23:49.446Z,52.08
2023-07-05T09:26:39.152Z,51.91
2023-07-05T09:29:56.196Z,51.94
2023-07-05T09:32:44.311Z,51.96
2023-07-05T09:35:33.813Z,51.99
2023-07-05T09:38:36.303Z,52.05
2023-07-05T09:41:41.197Z,51.84
2023-07-05T09:44:26.701Z,51.82
2023-07-05T09:47:12.328Z,51.66
2023-07-05T09:49:57.939Z,51.78
2023-07-05T09:52:45.913Z,51.70
2023-07-05T09:55:33.874Z,51.87
2023-07-05T09:58:26.103Z,52.04
2023-07-05T10:01:16.729Z,51.91
2023-07-05T10:04:05.623Z,52.00
2023-07-05T10:06:51.706Z,52.05
2023-07-05T10:10:02.846Z,52.12
2023-07-05T10:12:49.717Z,51.97
2023-07-05T10:15:42.914Z,52.04
2023-07-05T10:18:29.296Z,51.91
2023-07-05T10:21:22.900Z,52.04
2023-07-05T10:24:11.842Z,52.11
2023-07-05T10:27:28.313Z,52.18
2023-07-05T10:30:16.167Z,52.24
2023-07-05T10:33:09.617Z,52.29
2023-07-05T10:35:58.513Z,52.27
2023-07-05T10:38:46.011Z,52.18
2023-07-05T10:41:34.541Z,52.34
2023-07-05T10:44:33.467Z,52.19
2023-07-05T10:47:19.419Z,52.35
2023-07-05T10:50:07.576Z,52.28
2023-07-05T10:53:00.530Z,52.35
2023-07-05T10:55:53.838Z,52.25
2023-07-05T10:58:52.049Z,52.44
2023-07-05T11:02:20.925Z,52.48
2023-07-05T11:05:20.646Z,52.60
2023-07-05T11:11:24.851Z,52.28
2023-07-05T11:14:14.082Z,52.41
2023-07-05T11:17:00.113Z,52.37
2023-07-05T11:19:45.808Z,52.46
2023-07-05T11:22:42.907Z,52.50
2023-07-05T11:25:53.077Z,52.78
2023-07-05T11:28:43.575Z,52.37
2023-07-05T11:31:28.786Z,52.43
2023-07-05T11:34:25.743Z,52.53
2023-07-05T11:37:14.296Z,52.55
2023-07-05T11:40:01.763Z,52.69
2023-07-05T11:42:47.237Z,52.69
2023-07-05T11:45:47.368Z,52.61
2023-07-05T11:48:44.165Z,52.52
2023-07-05T11:54:24.259Z,52.36
2023-07-05T11:57:12.857Z,52.65
2023-07-05T12:00:08.190Z,52.58
2023-07-05T12:02:59.783Z,52.34
2023-07-05T12:05:46.229Z,52.56
2023-07-05T12:08:38.655Z,52.57
2023-07-05T12:11:41.333Z,52.66
2023-07-05T12:14:27.472Z,52.48
2023-07-05T12:17:19.114Z,52.60
2023-07-05T12:20:24.346Z,52.77
2023-07-05T12:23:15.474Z,52.53
2023-07-05T12:26:05.074Z,52.58
2023-07-05T12:28:50.905Z,52.71
2023-07-05T12:31:36.140Z,52.60
2023-07-05T12:34:21.570Z,52.76
2023-07-05T12:37:07.005Z,52.72
2023-07-05T12:39:52.170Z,52.68
2023-07-05T12:42:55.994Z,52.86
2023-07-05T12:45:42.236Z,52.87
2023-07-05T12:48:30.275Z,52.69
2023-07-05T12:51:20.762Z,52.78
2023-07-05T12:54:06.439Z,52.84
2023-07-05T12:56:54.991Z,53.03
2023-07-05T12:59:55.133Z,53.00
2023-07-05T13:02:47.678Z,53.39
2023-07-05T13:05:33.394Z,53.21
2023-07-05T13:08:18.900Z,53.10
2023-07-05T13:11:06.200Z,53.10
2023-07-05T13:14:00.005Z,53.14
2023-07-05T13:16:52.070Z,53.20
2023-07-05T13:20:14.668Z,53.43
2023-07-05T13:23:00.563Z,53.47
2023-07-05T13:25:47.579Z,53.22
2023-07-05T13:28:33.153Z,53.52
2023-07-05T13:31:21.326Z,53.30
2023-07-05T13:34:07.638Z,53.27
2023-07-05T13:37:08.317Z,53.42
2023-07-05T13:39:56.537Z,53.50
2023-07-05T13:42:42.300Z,53.48
2023-07-05T13:45:31.186Z,53.39
2023-07-05T13:48:16.725Z,53.62
2023-07-05T13:51:01.993Z,53.46
2023-07-05T13:53:47.631Z,53.24
2023-07-05T13:56:33.151Z,53.30
2023-07-05T13:59:20.901Z,53.49
2023-07-05T14:02:26.340Z,53.79
2023-07-05T14:05:13.543Z,53.62
2023-07-05T14:08:01.511Z,53.49
2023-07-05T14:10:49.599Z,53.51
2023-07-05T14:13:35.637Z,53.50
2023-07-05T14:16:22.442Z,53.53
2023-07-05T14:19:07.699Z,53.09
2023-07-05T14:21:54.225Z,53.30
2023-07-05T14:24:41.757Z,52.95
2023-07-05T14:27:27.643Z,52.64
2023-07-05T14:30:13.294Z,51.60
2023-07-05T14:32:59.469Z,51.29
2023-07-05T14:35:44.880Z,50.75
2023-07-05T14:38:30.704Z,51.16
2023-07-05T14:41:25.119Z,51.56
2023-07-05T14:44:11.486Z,51.57
2023-07-05T14:46:56.925Z,51.85
2023-07-05T14:49:42.385Z,51.76
2023-07-05T14:52:27.595Z,51.57
2023-07-05T14:55:18.971Z,51.68
2023-07-05T14:58:04.395Z,51.66
2023-07-05T15:00:51.272Z,50.18
2023-07-05T15:03:42.035Z,49.99
2023-07-05T15:06:27.742Z,49.87
2023-07-05T15:09:13.433Z,50.06
2023-07-05T15:11:58.573Z,50.28
2023-07-05T15:14:43.978Z,49.93
2023-07-05T15:17:29.500Z,49.44
2023-07-05T15:20:17.155Z,49.36
2023-07-05T15:23:04.042Z,48.77
2023-07-05T15:25:53.617Z,48.87
2023-07-05T15:28:39.797Z,49.01
2023-07-05T15:31:26.929Z,49.33
2023-07-05T15:34:12.499Z,49.31
2023-07-05T15:36:57.786Z,49.59
2023-07-05T15:39:43.576Z,49.56
2023-07-05T15:42:28.951Z,49.29
2023-07-05T15:45:15.629Z,49.41
2023-07-05T15:48:01.536Z,49.13
2023-07-05T15:50:51.619Z,48.77
2023-07-05T15:53:37.337Z,48.61
2023-07-05T15:56:23.093Z,48.57
2023-07-05T15:59:13.973Z,48.47
2023-07-05T16:02:01.091Z,48.08
2023-07-05T16:04:46.482Z,48.12
2023-07-05T16:07:32.236Z,47.83
2023-07-05T16:10:17.816Z,47.12
2023-07-05T16:13:03.647Z,47.23
2023-07-05T16:15:57.309Z,47.56
2023-07-05T16:18:43.963Z,47.29
2023-07-05T16:21:29.555Z,47.24
2023-07-05T16:24:14.796Z,46.92
2023-07-05T16:27:00.215Z,46.77
2023-07-05T16:29:45.483Z,46.31
2023-07-05T16:32:31.063Z,46.02
2023-07-05T16:35:17.339Z,46.25
2023-07-05T16:38:02.741Z,46.89
2023-07-05T16:40:48.686Z,46.66
2023-07-05T16:43:34.605Z,46.79
2023-07-05T16:46:20.082Z,46.49
2023-07-05T16:49:08.915Z,46.73
2023-07-05T16:51:57.548Z,46.69
2023-07-05T16:54:42.839Z,47.62
2023-07-05T16:57:29.798Z,47.60
2023-07-05T17:00:15.816Z,47.34
2023-07-05T17:03:01.550Z,47.65
2023-07-05T17:05:47.350Z,47.18
2023-07-05T17:08:36.061Z,46.68
2023-07-05T17:11:22.137Z,46.51
2023-07-05T17:14:07.487Z,46.25
2023-07-05T17:16:52.613Z,45.62
2023-07-05T17:19:38.291Z,44.89
2023-07-05T17:22:23.936Z,44.70
2023-07-05T17:25:09.797Z,45.16
2023-07-05T17:27:55.357Z,45.27
2023-07-05T17:30:41.450Z,45.07
2023-07-05T17:33:27.931Z,45.17
2023-07-05T17:36:17.019Z,45.26
2023-07-05T17:39:02.886Z,45.28
2023-07-05T17:41:48.517Z,45.51
2023-07-05T17:44:34.325Z,45.28
2023-07-05T17:47:20.392Z,45.31
2023-07-05T17:50:07.034Z,45.34
2023-07-05T17:52:52.794Z,45.09
2023-07-05T17:55:38.924Z,45.05
2023-07-05T17:58:24.456Z,45.41
2023-07-05T18:01:11.487Z,45.09
2023-07-05T18:03:58.128Z,44.84
2023-07-05T18:06:45.337Z,45.20
2023-07-05T18:09:30.717Z,45.00
2023-07-05T18:12:16.038Z,45.34
2023-07-05T18:15:01.446Z,44.85
2023-07-05T18:17:48.266Z,44.69
2023-07-05T18:20:35.612Z,44.99
2023-07-05T18:23:24.479Z,44.95
2023-07-05T18:26:14.305Z,44.65
2023-07-05T18:28:59.824Z,44.97
2023-07-05T18:31:45.432Z,44.48
2023-07-05T18:34:32.142Z,44.60
2023-07-05T18:37:17.858Z,44.42
2023-07-05T18:40:03.561Z,44.94
2023-07-05T18:42:49.001Z,45.08
2023-07-05T18:45:34.360Z,44.95
2023-07-05T18:48:20.263Z,45.53
2023-07-05T18:51:05.787Z,44.62
2023-07-05T18:53:51.392Z,45.24
2023-07-05T18:56:36.679Z,45.26
2023-07-05T18:59:21.941Z,45.57
2023-07-05T19:02:12.207Z,45.66
2023-07-05T19:04:58.173Z,45.88
2023-07-05T19:07:44.065Z,46.07
2023-07-05T19:10:30.549Z,46.04
2023-07-05T19:13:15.958Z,46.22
2023-07-05T19:16:03.569Z,46.14
2023-07-05T19:18:49.585Z,46.06
2023-07-05T19:21:35.378Z,46.21
2023-07-05T19:24:20.762Z,46.41
2023-07-05T19:27:06.683Z,46.41
2023-07-05T19:29:52.346Z,46.45
2023-07-05T19:32:37.846Z,46.33
2023-07-05T19:35:25.123Z,46.61
2023-07-05T19:38:11.415Z,46.37
2023-07-05T19:40:56.877Z,46.50
2023-07-05T19:43:43.421Z,46.18
2023-07-05T19:46:29.158Z,46.59
2023-07-05T19:49:14.682Z,46.33
2023-07-05T19:52:00.038Z,46.52
2023-07-05T19:54:45.458Z,46.54
2023-07-05T19:57:30.940Z,46.86
2023-07-05T20:00:17.684Z,46.78
2023-07-05T20:03:04.448Z,46.66
2023-07-05T20:05:50.070Z,47.14
2023-07-05T20:08:36.356Z,46.69
2023-07-05T20:11:23.258Z,46.65
2023-07-05T20:14:09.910Z,46.75
2023-07-05T20:16:55.137Z,46.57
2023-07-05T20:19:41.672Z,46.62
2023-07-05T20:22:27.276Z,46.62
2023-07-05T20:25:12.638Z,46.62
2023-07-05T20:27:59.147Z,46.47
2023-07-05T20:30:45.446Z,46.54
2023-07-05T20:33:32.584Z,46.48
2023-07-05T20:36:18.050Z,46.62
2023-07-05T20:39:04.564Z,46.52
2023-07-05T20:41:49.806Z,46.54
2023-07-05T20:44:35.223Z,46.17
2023-07-05T20:47:20.841Z,46.36
2023-07-05T20:50:08.270Z,46.38
2023-07-05T20:52:53.742Z,46.21
2023-07-05T20:55:39.256Z,46.47
2023-07-05T20:58:26.370Z,46.70
2023-07-05T21:01:12.858Z,46.56
2023-07-05T21:03:58.097Z,46.32
2023-07-05T21:06:44.132Z,46.46
2023-07-05T21:09:29.606Z,46.26
2023-07-05T21:12:14.810Z,46.57
2023-07-05T21:15:00.397Z,46.46
2023-07-05T21:17:45.868Z,46.42
2023-07-05T21:20:31.650Z,46.17
2023-07-05T21:23:16.978Z,46.10
2023-07-05T21:26:04.483Z,46.33
2023-07-05T21:28:50.316Z,46.31
2023-07-05T21:31:35.719Z,46.05
2023-07-05T21:34:21.291Z,46.19
2023-07-05T21:37:09.623Z,46.04
2023-07-05T21:39:54.755Z,45.98
2023-07-05T21:42:40.659Z,46.25
2023-07-05T21:45:25.985Z,46.12
2023-07-05T21:48:14.109Z,46.18
2023-07-05T21:51:00.880Z,45.96
2023-07-05T21:53:46.663Z,46.02
2023-07-05T21:56:33.362Z,46.02
2023-07-05T21:59:18.853Z,45.65
2023-07-05T22:02:04.505Z,45.68
2023-07-05T22:04:50.072Z,46.00
2023-07-05T22:07:35.174Z,46.02
2023-07-05T22:10:25.986Z,46.03
2023-07-05T22:13:12.865Z,45.59
2023-07-05T22:15:58.857Z,46.10
2023-07-05T22:18:48.541Z,45.78
2023-07-05T22:21:34.745Z,45.83
2023-07-05T22:24:20.024Z,45.76
2023-07-05T22:27:05.632Z,45.62
2023-07-05T22:29:51.272Z,45.71
2023-07-05T22:32:36.674Z,45.74
2023-07-05T22:35:22.878Z,45.80
2023-07-05T22:38:08.291Z,45.90
2023-07-05T22:40:53.604Z,45.74
2023-07-05T22:43:38.905Z,45.66
2023-07-05T22:46:24.288Z,45.67
2023-07-05T22:49:10.496Z,45.76
2023-07-05T22:51:55.697Z,45.97
2023-07-05T22:54:40.876Z,45.91
2023-07-05T22:57:26.228Z,45.72
2023-07-05T23:00:18.412Z,45.98
2023-07-05T23:03:04.048Z,45.77
2023-07-05T23:05:49.786Z,45.92
2023-07-05T23:08:39.090Z,46.11
2023-07-05T23:11:25.553Z,46.25
2023-07-05T23:14:12.379Z,46.00
2023-07-05T23:16:58.024Z,46.10
2023-07-05T23:19:43.234Z,46.21
2023-07-05T23:22:28.663Z,46.13
2023-07-05T23:25:14.026Z,46.01
2023-07-05T23:27:59.164Z,46.26
2023-07-05T23:30:44.430Z,46.21
2023-07-05T23:33:30.781Z,46.35
2023-07-05T23:36:17.947Z,46.22
2023-07-05T23:39:06.637Z,46.53
2023-07-05T23:41:52.564Z,46.61
2023-07-05T23:44:38.003Z,46.81
2023-07-05T23:47:24.297Z,46.73
2023-07-05T23:50:11.001Z,46.76
2023-07-05T23:52:56.633Z,46.82
2023-07-05T23:55:45.007Z,46.71
2023-07-05T23:58:30.603Z,46.77
